Élőkép

Információk

Albatrosz Repülő Egyesület
8000 Székesfehérvár,
Radványi utca 6.

Adószám:
19092908-2-07

Bankszámla szám:
Budapest Bank
10102952-01361819-00000001

Telefon: +36 30 9598-897

Telephey: Börgönd repülőtér

Börgöndi repülõtér

LHBP METAR/TAF

[source: ADDS]
METAR
TAF LHBP 202300Z 2100/2124 33008KT CAVOK BECMG 2107/2110 33012KT TEMPO 2110/2117 33016G26KT BECMG 2117/2120 33007KT TAF
TAF LHBP 202300Z 2100/2124 33008KT CAVOK BECMG 2107/2110 33012KT TEMPO 2110/2117 33016G26KT BECMG 2117/2120 33007KT =
SR / SS: 03:48 / 17:44 UTC (Börgönd 2015-04-21)
Hungarian Chinese (Simplified) Croatian Czech English Finnish French German Hebrew Italian Japanese Polish Portuguese Romanian Russian Serbian Slovak Slovenian Spanish

Belépés tagoknak